sensor_id;sensor_type;location;lat;lon;timestamp;P1;durP1;ratioP1;P2;durP2;ratioP2
8279;SDS011;8335;42.646;23.380;2022-07-17T00:00:23;5.18;;;3.10;;
8279;SDS011;8335;42.646;23.380;2022-07-17T00:02:50;6.00;;;2.95;;
8279;SDS011;8335;42.646;23.380;2022-07-17T00:05:17;3.13;;;2.83;;
8279;SDS011;8335;42.646;23.380;2022-07-17T00:07:45;4.95;;;3.00;;
8279;SDS011;8335;42.646;23.380;2022-07-17T00:10:13;3.47;;;3.13;;
8279;SDS011;8335;42.646;23.380;2022-07-17T00:12:40;4.65;;;3.08;;
8279;SDS011;8335;42.646;23.380;2022-07-17T00:15:06;5.88;;;2.90;;
8279;SDS011;8335;42.646;23.380;2022-07-17T00:17:35;9.45;;;3.47;;
8279;SDS011;8335;42.646;23.380;2022-07-17T00:20:02;3.72;;;3.03;;
8279;SDS011;8335;42.646;23.380;2022-07-17T00:22:29;3.72;;;3.05;;
8279;SDS011;8335;42.646;23.380;2022-07-17T00:24:56;6.75;;;3.03;;
8279;SDS011;8335;42.646;23.380;2022-07-17T00:27:23;5.30;;;3.20;;
8279;SDS011;8335;42.646;23.380;2022-07-17T00:29:49;4.93;;;3.47;;
8279;SDS011;8335;42.646;23.380;2022-07-17T00:32:16;4.55;;;3.30;;
8279;SDS011;8335;42.646;23.380;2022-07-17T00:34:44;3.78;;;3.30;;
8279;SDS011;8335;42.646;23.380;2022-07-17T00:37:11;4.15;;;3.10;;
8279;SDS011;8335;42.646;23.380;2022-07-17T00:39:37;5.53;;;3.20;;
8279;SDS011;8335;42.646;23.380;2022-07-17T00:42:04;3.22;;;2.92;;
8279;SDS011;8335;42.646;23.380;2022-07-17T00:44:31;3.67;;;3.22;;
8279;SDS011;8335;42.646;23.380;2022-07-17T00:46:58;5.07;;;3.47;;
8279;SDS011;8335;42.646;23.380;2022-07-17T00:49:24;3.05;;;2.75;;
8279;SDS011;8335;42.646;23.380;2022-07-17T00:51:52;5.47;;;3.55;;
8279;SDS011;8335;42.646;23.380;2022-07-17T00:54:19;3.47;;;3.10;;
8279;SDS011;8335;42.646;23.380;2022-07-17T00:56:47;3.53;;;2.90;;
8279;SDS011;8335;42.646;23.380;2022-07-17T00:59:15;3.63;;;3.33;;
8279;SDS011;8335;42.646;23.380;2022-07-17T01:01:44;5.63;;;3.22;;
8279;SDS011;8335;42.646;23.380;2022-07-17T01:04:11;4.47;;;3.10;;
8279;SDS011;8335;42.646;23.380;2022-07-17T01:06:38;4.20;;;3.13;;
8279;SDS011;8335;42.646;23.380;2022-07-17T01:09:09;4.72;;;3.60;;
8279;SDS011;8335;42.646;23.380;2022-07-17T01:11:36;5.88;;;3.28;;
8279;SDS011;8335;42.646;23.380;2022-07-17T01:14:03;5.97;;;3.05;;
8279;SDS011;8335;42.646;23.380;2022-07-17T01:16:30;3.53;;;2.95;;
8279;SDS011;8335;42.646;23.380;2022-07-17T01:18:58;4.10;;;3.10;;
8279;SDS011;8335;42.646;23.380;2022-07-17T01:21:26;4.30;;;3.20;;
8279;SDS011;8335;42.646;23.380;2022-07-17T01:24:04;7.35;;;3.13;;
8279;SDS011;8335;42.646;23.380;2022-07-17T01:26:32;3.30;;;3.00;;
8279;SDS011;8335;42.646;23.380;2022-07-17T01:28:58;3.50;;;3.20;;
8279;SDS011;8335;42.646;23.380;2022-07-17T01:31:25;5.80;;;3.17;;
8279;SDS011;8335;42.646;23.380;2022-07-17T01:33:52;5.45;;;3.13;;
8279;SDS011;8335;42.646;23.380;2022-07-17T01:36:21;5.07;;;3.10;;
8279;SDS011;8335;42.646;23.380;2022-07-17T01:38:49;5.78;;;2.65;;
8279;SDS011;8335;42.646;23.380;2022-07-17T01:41:16;3.75;;;3.42;;
8279;SDS011;8335;42.646;23.380;2022-07-17T01:43:43;4.30;;;3.38;;
8279;SDS011;8335;42.646;23.380;2022-07-17T01:46:10;5.63;;;3.25;;
8279;SDS011;8335;42.646;23.380;2022-07-17T01:48:36;3.45;;;3.00;;
8279;SDS011;8335;42.646;23.380;2022-07-17T01:51:03;3.50;;;3.08;;
8279;SDS011;8335;42.646;23.380;2022-07-17T01:53:30;3.67;;;3.35;;
8279;SDS011;8335;42.646;23.380;2022-07-17T01:55:58;5.00;;;3.30;;
8279;SDS011;8335;42.646;23.380;2022-07-17T01:58:25;4.53;;;3.17;;
8279;SDS011;8335;42.646;23.380;2022-07-17T02:00:52;3.88;;;3.25;;
8279;SDS011;8335;42.646;23.380;2022-07-17T02:03:19;4.50;;;3.47;;
8279;SDS011;8335;42.646;23.380;2022-07-17T02:05:46;3.17;;;2.88;;
8279;SDS011;8335;42.646;23.380;2022-07-17T02:08:14;5.28;;;3.40;;
8279;SDS011;8335;42.646;23.380;2022-07-17T02:10:40;6.13;;;3.53;;
8279;SDS011;8335;42.646;23.380;2022-07-17T02:13:09;3.42;;;3.13;;
8279;SDS011;8335;42.646;23.380;2022-07-17T02:15:36;4.30;;;3.40;;
8279;SDS011;8335;42.646;23.380;2022-07-17T02:18:02;4.25;;;3.30;;
8279;SDS011;8335;42.646;23.380;2022-07-17T02:20:29;4.57;;;3.30;;
8279;SDS011;8335;42.646;23.380;2022-07-17T02:22:56;4.15;;;3.72;;
8279;SDS011;8335;42.646;23.380;2022-07-17T02:25:22;5.85;;;3.53;;
8279;SDS011;8335;42.646;23.380;2022-07-17T02:27:49;4.05;;;3.30;;
8279;SDS011;8335;42.646;23.380;2022-07-17T02:30:18;6.85;;;3.47;;
8279;SDS011;8335;42.646;23.380;2022-07-17T02:32:45;4.72;;;3.67;;
8279;SDS011;8335;42.646;23.380;2022-07-17T02:35:12;3.97;;;3.58;;
8279;SDS011;8335;42.646;23.380;2022-07-17T02:37:40;4.50;;;3.67;;
8279;SDS011;8335;42.646;23.380;2022-07-17T02:40:08;7.47;;;3.65;;
8279;SDS011;8335;42.646;23.380;2022-07-17T02:42:36;4.82;;;3.70;;
8279;SDS011;8335;42.646;23.380;2022-07-17T02:45:02;4.57;;;3.78;;
8279;SDS011;8335;42.646;23.380;2022-07-17T02:47:33;7.88;;;3.90;;
8279;SDS011;8335;42.646;23.380;2022-07-17T02:50:02;6.57;;;3.40;;
8279;SDS011;8335;42.646;23.380;2022-07-17T02:52:30;6.38;;;4.03;;
8279;SDS011;8335;42.646;23.380;2022-07-17T02:54:57;3.95;;;3.35;;
8279;SDS011;8335;42.646;23.380;2022-07-17T02:57:24;7.07;;;4.15;;
8279;SDS011;8335;42.646;23.380;2022-07-17T02:59:51;6.22;;;3.95;;
8279;SDS011;8335;42.646;23.380;2022-07-17T03:02:17;5.25;;;3.75;;
8279;SDS011;8335;42.646;23.380;2022-07-17T03:04:45;6.18;;;3.47;;
8279;SDS011;8335;42.646;23.380;2022-07-17T03:07:12;5.75;;;3.45;;
8279;SDS011;8335;42.646;23.380;2022-07-17T03:09:39;7.30;;;3.70;;
8279;SDS011;8335;42.646;23.380;2022-07-17T03:12:06;10.07;;;3.83;;
8279;SDS011;8335;42.646;23.380;2022-07-17T03:14:33;11.85;;;4.07;;
8279;SDS011;8335;42.646;23.380;2022-07-17T03:16:59;4.57;;;3.50;;
8279;SDS011;8335;42.646;23.380;2022-07-17T03:19:26;7.22;;;4.20;;
8279;SDS011;8335;42.646;23.380;2022-07-17T03:21:54;5.28;;;4.00;;
8279;SDS011;8335;42.646;23.380;2022-07-17T03:24:21;7.22;;;3.95;;
8279;SDS011;8335;42.646;23.380;2022-07-17T03:26:48;3.90;;;3.50;;
8279;SDS011;8335;42.646;23.380;2022-07-17T03:29:14;4.90;;;3.60;;
8279;SDS011;8335;42.646;23.380;2022-07-17T03:31:42;7.22;;;3.60;;
8279;SDS011;8335;42.646;23.380;2022-07-17T03:34:09;4.38;;;3.55;;
8279;SDS011;8335;42.646;23.380;2022-07-17T03:36:35;4.55;;;3.85;;
8279;SDS011;8335;42.646;23.380;2022-07-17T03:39:03;3.92;;;3.20;;
8279;SDS011;8335;42.646;23.380;2022-07-17T03:41:30;7.95;;;3.92;;
8279;SDS011;8335;42.646;23.380;2022-07-17T03:43:57;3.50;;;3.20;;
8279;SDS011;8335;42.646;23.380;2022-07-17T03:46:24;3.55;;;3.00;;
8279;SDS011;8335;42.646;23.380;2022-07-17T03:48:51;6.80;;;3.67;;
8279;SDS011;8335;42.646;23.380;2022-07-17T03:51:18;5.13;;;3.33;;
8279;SDS011;8335;42.646;23.380;2022-07-17T03:53:44;4.53;;;2.90;;
8279;SDS011;8335;42.646;23.380;2022-07-17T03:56:12;10.05;;;3.60;;
8279;SDS011;8335;42.646;23.380;2022-07-17T03:58:39;4.50;;;3.00;;
8279;SDS011;8335;42.646;23.380;2022-07-17T04:01:06;3.28;;;2.85;;
8279;SDS011;8335;42.646;23.380;2022-07-17T04:03:33;4.20;;;2.85;;
8279;SDS011;8335;42.646;23.380;2022-07-17T04:06:00;4.93;;;3.05;;
8279;SDS011;8335;42.646;23.380;2022-07-17T04:08:26;8.25;;;3.35;;
8279;SDS011;8335;42.646;23.380;2022-07-17T04:10:53;3.40;;;3.10;;
8279;SDS011;8335;42.646;23.380;2022-07-17T04:13:21;6.93;;;2.88;;
8279;SDS011;8335;42.646;23.380;2022-07-17T04:15:48;4.82;;;2.97;;
8279;SDS011;8335;42.646;23.380;2022-07-17T04:18:22;3.53;;;2.90;;
8279;SDS011;8335;42.646;23.380;2022-07-17T04:20:50;5.72;;;3.03;;
8279;SDS011;8335;42.646;23.380;2022-07-17T04:23:17;4.90;;;2.80;;
8279;SDS011;8335;42.646;23.380;2022-07-17T04:25:44;5.25;;;3.03;;
8279;SDS011;8335;42.646;23.380;2022-07-17T04:28:11;5.75;;;3.33;;
8279;SDS011;8335;42.646;23.380;2022-07-17T04:30:40;4.95;;;2.90;;
8279;SDS011;8335;42.646;23.380;2022-07-17T04:33:06;3.50;;;2.70;;
8279;SDS011;8335;42.646;23.380;2022-07-17T04:35:33;3.22;;;2.90;;
8279;SDS011;8335;42.646;23.380;2022-07-17T04:38:00;7.40;;;2.65;;
8279;SDS011;8335;42.646;23.380;2022-07-17T04:40:28;4.43;;;2.83;;
8279;SDS011;8335;42.646;23.380;2022-07-17T04:42:54;3.30;;;2.75;;
8279;SDS011;8335;42.646;23.380;2022-07-17T04:45:21;4.75;;;2.58;;
8279;SDS011;8335;42.646;23.380;2022-07-17T04:47:49;5.25;;;2.83;;
8279;SDS011;8335;42.646;23.380;2022-07-17T04:50:16;5.60;;;2.95;;
8279;SDS011;8335;42.646;23.380;2022-07-17T04:52:43;5.13;;;2.72;;
8279;SDS011;8335;42.646;23.380;2022-07-17T04:55:09;7.28;;;2.75;;
8279;SDS011;8335;42.646;23.380;2022-07-17T04:57:36;3.67;;;2.40;;
8279;SDS011;8335;42.646;23.380;2022-07-17T05:00:03;4.85;;;2.35;;
8279;SDS011;8335;42.646;23.380;2022-07-17T05:02:31;2.70;;;2.40;;
8279;SDS011;8335;42.646;23.380;2022-07-17T05:05:00;3.30;;;2.25;;
8279;SDS011;8335;42.646;23.380;2022-07-17T05:07:27;5.10;;;2.40;;
8279;SDS011;8335;42.646;23.380;2022-07-17T05:09:54;5.15;;;2.38;;
8279;SDS011;8335;42.646;23.380;2022-07-17T05:12:20;2.95;;;1.90;;
8279;SDS011;8335;42.646;23.380;2022-07-17T05:14:47;3.70;;;2.65;;
8279;SDS011;8335;42.646;23.380;2022-07-17T05:17:14;4.15;;;2.10;;
8279;SDS011;8335;42.646;23.380;2022-07-17T05:19:41;4.10;;;2.20;;
8279;SDS011;8335;42.646;23.380;2022-07-17T05:22:09;3.65;;;2.58;;
8279;SDS011;8335;42.646;23.380;2022-07-17T05:24:36;5.82;;;2.35;;
8279;SDS011;8335;42.646;23.380;2022-07-17T05:27:03;2.88;;;2.00;;
8279;SDS011;8335;42.646;23.380;2022-07-17T05:29:29;2.30;;;2.10;;
8279;SDS011;8335;42.646;23.380;2022-07-17T05:31:56;4.80;;;2.38;;
8279;SDS011;8335;42.646;23.380;2022-07-17T05:34:23;4.32;;;2.25;;
8279;SDS011;8335;42.646;23.380;2022-07-17T05:36:49;6.22;;;2.60;;
8279;SDS011;8335;42.646;23.380;2022-07-17T05:39:17;4.07;;;2.20;;
8279;SDS011;8335;42.646;23.380;2022-07-17T05:41:44;5.88;;;4.32;;
8279;SDS011;8335;42.646;23.380;2022-07-17T05:44:11;14.68;;;6.15;;
8279;SDS011;8335;42.646;23.380;2022-07-17T05:46:38;6.20;;;2.90;;
8279;SDS011;8335;42.646;23.380;2022-07-17T05:49:04;2.88;;;1.80;;
8279;SDS011;8335;42.646;23.380;2022-07-17T05:51:31;8.90;;;3.35;;
8279;SDS011;8335;42.646;23.380;2022-07-17T05:53:59;3.75;;;2.35;;
8279;SDS011;8335;42.646;23.380;2022-07-17T05:56:27;4.20;;;3.40;;
8279;SDS011;8335;42.646;23.380;2022-07-17T05:58:53;3.25;;;2.50;;
8279;SDS011;8335;42.646;23.380;2022-07-17T06:01:20;2.58;;;2.25;;
8279;SDS011;8335;42.646;23.380;2022-07-17T06:03:47;2.95;;;2.38;;
8279;SDS011;8335;42.646;23.380;2022-07-17T06:06:13;3.50;;;2.30;;
8279;SDS011;8335;42.646;23.380;2022-07-17T06:08:40;4.32;;;2.63;;
8279;SDS011;8335;42.646;23.380;2022-07-17T06:11:07;6.38;;;2.58;;
8279;SDS011;8335;42.646;23.380;2022-07-17T06:13:35;8.50;;;6.50;;
8279;SDS011;8335;42.646;23.380;2022-07-17T06:16:02;6.43;;;4.07;;
8279;SDS011;8335;42.646;23.380;2022-07-17T06:18:28;6.60;;;3.17;;
8279;SDS011;8335;42.646;23.380;2022-07-17T06:20:55;4.32;;;2.08;;
8279;SDS011;8335;42.646;23.380;2022-07-17T06:23:22;2.92;;;2.00;;
8279;SDS011;8335;42.646;23.380;2022-07-17T06:25:49;2.67;;;2.20;;
8279;SDS011;8335;42.646;23.380;2022-07-17T06:28:16;3.85;;;2.33;;
8279;SDS011;8335;42.646;23.380;2022-07-17T06:30:44;2.90;;;2.30;;
8279;SDS011;8335;42.646;23.380;2022-07-17T06:33:10;5.10;;;2.40;;
8279;SDS011;8335;42.646;23.380;2022-07-17T06:35:37;4.65;;;2.58;;
8279;SDS011;8335;42.646;23.380;2022-07-17T06:38:04;4.88;;;2.38;;
8279;SDS011;8335;42.646;23.380;2022-07-17T06:40:30;3.15;;;2.38;;
8279;SDS011;8335;42.646;23.380;2022-07-17T06:42:57;6.10;;;2.63;;
8279;SDS011;8335;42.646;23.380;2022-07-17T06:45:24;4.70;;;2.20;;
8279;SDS011;8335;42.646;23.380;2022-07-17T06:47:52;3.97;;;2.45;;
8279;SDS011;8335;42.646;23.380;2022-07-17T06:50:19;4.95;;;2.35;;
8279;SDS011;8335;42.646;23.380;2022-07-17T06:52:46;5.22;;;2.88;;
8279;SDS011;8335;42.646;23.380;2022-07-17T06:55:13;4.88;;;2.40;;
8279;SDS011;8335;42.646;23.380;2022-07-17T06:57:40;2.53;;;2.00;;
8279;SDS011;8335;42.646;23.380;2022-07-17T07:00:07;2.50;;;2.28;;
8279;SDS011;8335;42.646;23.380;2022-07-17T07:02:35;4.38;;;2.10;;
8279;SDS011;8335;42.646;23.380;2022-07-17T07:05:04;4.97;;;2.83;;
8279;SDS011;8335;42.646;23.380;2022-07-17T07:07:31;3.10;;;2.45;;
8279;SDS011;8335;42.646;23.380;2022-07-17T07:09:57;4.07;;;2.35;;
8279;SDS011;8335;42.646;23.380;2022-07-17T07:12:24;2.58;;;2.30;;
8279;SDS011;8335;42.646;23.380;2022-07-17T07:14:51;3.60;;;2.35;;
8279;SDS011;8335;42.646;23.380;2022-07-17T07:17:17;2.75;;;2.30;;
8279;SDS011;8335;42.646;23.380;2022-07-17T07:19:44;2.97;;;2.60;;
8279;SDS011;8335;42.646;23.380;2022-07-17T07:22:12;5.00;;;2.70;;
8279;SDS011;8335;42.646;23.380;2022-07-17T07:24:39;3.78;;;2.20;;
8279;SDS011;8335;42.646;23.380;2022-07-17T07:27:06;2.50;;;2.30;;
8279;SDS011;8335;42.646;23.380;2022-07-17T07:29:32;3.88;;;2.22;;
8279;SDS011;8335;42.646;23.380;2022-07-17T07:31:59;2.90;;;2.47;;
8279;SDS011;8335;42.646;23.380;2022-07-17T07:34:26;4.10;;;2.28;;
8279;SDS011;8335;42.646;23.380;2022-07-17T07:36:53;6.45;;;2.38;;
8279;SDS011;8335;42.646;23.380;2022-07-17T07:39:21;4.13;;;2.38;;
8279;SDS011;8335;42.646;23.380;2022-07-17T07:41:48;2.50;;;2.28;;
8279;SDS011;8335;42.646;23.380;2022-07-17T07:44:15;4.53;;;2.63;;
8279;SDS011;8335;42.646;23.380;2022-07-17T07:46:43;8.20;;;2.78;;
8279;SDS011;8335;42.646;23.380;2022-07-17T07:49:09;5.30;;;2.28;;
8279;SDS011;8335;42.646;23.380;2022-07-17T07:51:36;4.88;;;2.47;;
8279;SDS011;8335;42.646;23.380;2022-07-17T07:54:03;5.03;;;2.40;;
8279;SDS011;8335;42.646;23.380;2022-07-17T07:56:31;3.63;;;2.30;;
8279;SDS011;8335;42.646;23.380;2022-07-17T07:58:58;2.47;;;2.20;;
8279;SDS011;8335;42.646;23.380;2022-07-17T08:01:25;4.15;;;2.40;;
8279;SDS011;8335;42.646;23.380;2022-07-17T08:03:52;8.27;;;3.63;;
8279;SDS011;8335;42.646;23.380;2022-07-17T08:06:18;4.75;;;3.22;;
8279;SDS011;8335;42.646;23.380;2022-07-17T08:08:45;4.28;;;2.60;;
8279;SDS011;8335;42.646;23.380;2022-07-17T08:11:12;3.88;;;2.30;;
8279;SDS011;8335;42.646;23.380;2022-07-17T08:13:40;2.28;;;1.98;;
8279;SDS011;8335;42.646;23.380;2022-07-17T08:16:07;4.68;;;2.00;;
8279;SDS011;8335;42.646;23.380;2022-07-17T08:18:34;7.00;;;2.30;;
8279;SDS011;8335;42.646;23.380;2022-07-17T08:21:01;2.33;;;2.05;;
8279;SDS011;8335;42.646;23.380;2022-07-17T08:23:28;5.00;;;2.50;;
8279;SDS011;8335;42.646;23.380;2022-07-17T08:25:54;7.45;;;2.83;;
8279;SDS011;8335;42.646;23.380;2022-07-17T08:28:21;4.30;;;2.50;;
8279;SDS011;8335;42.646;23.380;2022-07-17T08:30:49;5.45;;;2.97;;
8279;SDS011;8335;42.646;23.380;2022-07-17T08:33:16;4.15;;;2.50;;
8279;SDS011;8335;42.646;23.380;2022-07-17T08:35:43;4.50;;;2.10;;
8279;SDS011;8335;42.646;23.380;2022-07-17T08:38:10;4.18;;;2.10;;
8279;SDS011;8335;42.646;23.380;2022-07-17T08:40:38;2.67;;;2.30;;
8279;SDS011;8335;42.646;23.380;2022-07-17T08:43:06;4.68;;;2.28;;
8279;SDS011;8335;42.646;23.380;2022-07-17T08:45:34;3.22;;;2.33;;
8279;SDS011;8335;42.646;23.380;2022-07-17T08:48:02;3.80;;;2.35;;
8279;SDS011;8335;42.646;23.380;2022-07-17T08:50:30;5.30;;;2.58;;
8279;SDS011;8335;42.646;23.380;2022-07-17T08:52:59;5.20;;;2.65;;
8279;SDS011;8335;42.646;23.380;2022-07-17T08:55:27;2.63;;;2.15;;
8279;SDS011;8335;42.646;23.380;2022-07-17T08:57:54;5.45;;;2.40;;
8279;SDS011;8335;42.646;23.380;2022-07-17T09:00:22;3.65;;;2.80;;
8279;SDS011;8335;42.646;23.380;2022-07-17T09:02:52;2.70;;;2.00;;
8279;SDS011;8335;42.646;23.380;2022-07-17T09:05:22;3.30;;;2.40;;
8279;SDS011;8335;42.646;23.380;2022-07-17T09:07:50;6.22;;;2.67;;
8279;SDS011;8335;42.646;23.380;2022-07-17T09:10:17;4.90;;;3.63;;
8279;SDS011;8335;42.646;23.380;2022-07-17T09:12:44;4.35;;;2.70;;
8279;SDS011;8335;42.646;23.380;2022-07-17T09:15:14;4.10;;;2.38;;
8279;SDS011;8335;42.646;23.380;2022-07-17T09:17:49;2.70;;;2.50;;
8279;SDS011;8335;42.646;23.380;2022-07-17T09:20:16;3.90;;;2.90;;
8279;SDS011;8335;42.646;23.380;2022-07-17T09:22:45;5.60;;;2.70;;
8279;SDS011;8335;42.646;23.380;2022-07-17T09:25:31;7.22;;;3.72;;
8279;SDS011;8335;42.646;23.380;2022-07-17T09:27:59;3.55;;;2.45;;
8279;SDS011;8335;42.646;23.380;2022-07-17T09:30:27;3.60;;;3.00;;
8279;SDS011;8335;42.646;23.380;2022-07-17T09:32:54;3.33;;;2.50;;
8279;SDS011;8335;42.646;23.380;2022-07-17T09:35:21;2.47;;;2.20;;
8279;SDS011;8335;42.646;23.380;2022-07-17T09:37:52;3.65;;;2.50;;
8279;SDS011;8335;42.646;23.380;2022-07-17T09:40:20;2.60;;;2.22;;
8279;SDS011;8335;42.646;23.380;2022-07-17T09:43:05;3.15;;;2.55;;
8279;SDS011;8335;42.646;23.380;2022-07-17T09:45:33;2.75;;;2.30;;
8279;SDS011;8335;42.646;23.380;2022-07-17T09:48:00;3.17;;;2.60;;
8279;SDS011;8335;42.646;23.380;2022-07-17T09:50:28;4.20;;;2.40;;
8279;SDS011;8335;42.646;23.380;2022-07-17T09:52:57;3.13;;;2.58;;
8279;SDS011;8335;42.646;23.380;2022-07-17T09:55:26;5.63;;;2.80;;
8279;SDS011;8335;42.646;23.380;2022-07-17T09:57:56;2.60;;;2.25;;
8279;SDS011;8335;42.646;23.380;2022-07-17T10:00:24;3.95;;;2.50;;
8279;SDS011;8335;42.646;23.380;2022-07-17T10:02:52;5.38;;;2.60;;
8279;SDS011;8335;42.646;23.380;2022-07-17T10:05:19;3.28;;;2.50;;
8279;SDS011;8335;42.646;23.380;2022-07-17T10:07:47;4.00;;;2.63;;
8279;SDS011;8335;42.646;23.380;2022-07-17T10:10:16;4.45;;;2.28;;
8279;SDS011;8335;42.646;23.380;2022-07-17T10:12:45;2.60;;;2.40;;
8279;SDS011;8335;42.646;23.380;2022-07-17T10:15:14;4.35;;;2.67;;
8279;SDS011;8335;42.646;23.380;2022-07-17T10:17:42;3.63;;;2.60;;
8279;SDS011;8335;42.646;23.380;2022-07-17T10:20:09;2.60;;;2.40;;
8279;SDS011;8335;42.646;23.380;2022-07-17T10:22:43;2.85;;;2.38;;
8279;SDS011;8335;42.646;23.380;2022-07-17T10:25:12;3.90;;;2.67;;
8279;SDS011;8335;42.646;23.380;2022-07-17T10:27:47;4.97;;;2.22;;
8279;SDS011;8335;42.646;23.380;2022-07-17T10:30:22;4.60;;;2.55;;
8279;SDS011;8335;42.646;23.380;2022-07-17T10:32:52;4.13;;;2.63;;
8279;SDS011;8335;42.646;23.380;2022-07-17T10:35:20;4.72;;;2.40;;
8279;SDS011;8335;42.646;23.380;2022-07-17T10:37:47;2.47;;;2.28;;
8279;SDS011;8335;42.646;23.380;2022-07-17T10:40:15;4.82;;;3.35;;
8279;SDS011;8335;42.646;23.380;2022-07-17T10:42:45;5.10;;;3.13;;
8279;SDS011;8335;42.646;23.380;2022-07-17T10:45:19;2.80;;;2.42;;
8279;SDS011;8335;42.646;23.380;2022-07-17T10:47:49;4.93;;;2.60;;
8279;SDS011;8335;42.646;23.380;2022-07-17T10:50:19;4.22;;;2.70;;
8279;SDS011;8335;42.646;23.380;2022-07-17T10:52:55;4.32;;;2.70;;
8279;SDS011;8335;42.646;23.380;2022-07-17T10:55:26;5.95;;;2.90;;
8279;SDS011;8335;42.646;23.380;2022-07-17T10:57:55;7.03;;;3.25;;
8279;SDS011;8335;42.646;23.380;2022-07-17T11:00:23;3.83;;;3.20;;
8279;SDS011;8335;42.646;23.380;2022-07-17T11:02:50;3.35;;;2.40;;
8279;SDS011;8335;42.646;23.380;2022-07-17T11:05:18;4.65;;;3.08;;
8279;SDS011;8335;42.646;23.380;2022-07-17T11:07:48;4.03;;;2.65;;
8279;SDS011;8335;42.646;23.380;2022-07-17T11:10:20;3.30;;;2.50;;
8279;SDS011;8335;42.646;23.380;2022-07-17T11:12:47;4.90;;;2.72;;
8279;SDS011;8335;42.646;23.380;2022-07-17T11:15:16;4.22;;;2.60;;
8279;SDS011;8335;42.646;23.380;2022-07-17T11:17:47;4.55;;;2.80;;
8279;SDS011;8335;42.646;23.380;2022-07-17T11:20:15;2.80;;;2.50;;
8279;SDS011;8335;42.646;23.380;2022-07-17T11:22:43;6.22;;;2.95;;
8279;SDS011;8335;42.646;23.380;2022-07-17T11:25:10;3.58;;;2.58;;
8279;SDS011;8335;42.646;23.380;2022-07-17T11:27:37;4.38;;;2.97;;
8279;SDS011;8335;42.646;23.380;2022-07-17T11:30:04;9.13;;;3.10;;
8279;SDS011;8335;42.646;23.380;2022-07-17T11:32:38;4.28;;;3.35;;
8279;SDS011;8335;42.646;23.380;2022-07-17T11:35:16;6.45;;;3.42;;
8279;SDS011;8335;42.646;23.380;2022-07-17T11:37:43;3.00;;;2.50;;
8279;SDS011;8335;42.646;23.380;2022-07-17T11:40:10;2.85;;;2.53;;
8279;SDS011;8335;42.646;23.380;2022-07-17T11:42:37;3.20;;;2.67;;
8279;SDS011;8335;42.646;23.380;2022-07-17T11:45:05;5.78;;;3.47;;
8279;SDS011;8335;42.646;23.380;2022-07-17T11:47:32;6.05;;;2.72;;
8279;SDS011;8335;42.646;23.380;2022-07-17T11:50:08;4.07;;;2.85;;
8279;SDS011;8335;42.646;23.380;2022-07-17T11:52:41;4.25;;;3.78;;
8279;SDS011;8335;42.646;23.380;2022-07-17T11:55:09;2.75;;;2.53;;
8279;SDS011;8335;42.646;23.380;2022-07-17T11:57:43;3.30;;;2.97;;
8279;SDS011;8335;42.646;23.380;2022-07-17T12:00:12;3.45;;;2.80;;
8279;SDS011;8335;42.646;23.380;2022-07-17T12:02:41;4.18;;;2.78;;
8279;SDS011;8335;42.646;23.380;2022-07-17T12:05:09;3.55;;;2.60;;
8279;SDS011;8335;42.646;23.380;2022-07-17T12:07:40;3.17;;;2.88;;
8279;SDS011;8335;42.646;23.380;2022-07-17T12:10:12;3.05;;;2.80;;
8279;SDS011;8335;42.646;23.380;2022-07-17T12:12:50;2.97;;;2.42;;
8279;SDS011;8335;42.646;23.380;2022-07-17T12:15:18;5.80;;;3.22;;
8279;SDS011;8335;42.646;23.380;2022-07-17T12:17:46;21.60;;;16.00;;
8279;SDS011;8335;42.646;23.380;2022-07-17T12:20:15;36.40;;;19.73;;
8279;SDS011;8335;42.646;23.380;2022-07-17T12:22:43;99.15;;;44.35;;
8279;SDS011;8335;42.646;23.380;2022-07-17T12:25:21;129.02;;;64.53;;
8279;SDS011;8335;42.646;23.380;2022-07-17T12:27:48;197.32;;;115.53;;
8279;SDS011;8335;42.646;23.380;2022-07-17T12:30:15;92.43;;;55.92;;
8279;SDS011;8335;42.646;23.380;2022-07-17T12:32:42;212.20;;;122.18;;
8279;SDS011;8335;42.646;23.380;2022-07-17T12:35:09;87.75;;;50.85;;
8279;SDS011;8335;42.646;23.380;2022-07-17T12:37:37;11.35;;;7.95;;
8279;SDS011;8335;42.646;23.380;2022-07-17T12:40:04;11.80;;;5.38;;
8279;SDS011;8335;42.646;23.380;2022-07-17T12:42:31;30.00;;;10.98;;
8279;SDS011;8335;42.646;23.380;2022-07-17T12:44:58;26.45;;;15.00;;
8279;SDS011;8335;42.646;23.380;2022-07-17T12:47:26;38.45;;;22.00;;
8279;SDS011;8335;42.646;23.380;2022-07-17T12:49:53;21.50;;;14.43;;
8279;SDS011;8335;42.646;23.380;2022-07-17T12:52:20;55.00;;;40.05;;
8279;SDS011;8335;42.646;23.380;2022-07-17T12:54:48;39.58;;;17.10;;
8279;SDS011;8335;42.646;23.380;2022-07-17T12:57:15;47.83;;;31.88;;
8279;SDS011;8335;42.646;23.380;2022-07-17T12:59:41;350.20;;;150.38;;
8279;SDS011;8335;42.646;23.380;2022-07-17T13:02:08;116.80;;;67.63;;
8279;SDS011;8335;42.646;23.380;2022-07-17T13:04:36;24.25;;;11.38;;
8279;SDS011;8335;42.646;23.380;2022-07-17T13:07:03;68.45;;;26.92;;
8279;SDS011;8335;42.646;23.380;2022-07-17T13:09:30;55.10;;;30.40;;
8279;SDS011;8335;42.646;23.380;2022-07-17T13:11:58;147.30;;;60.38;;
8279;SDS011;8335;42.646;23.380;2022-07-17T13:14:25;371.20;;;135.68;;
8279;SDS011;8335;42.646;23.380;2022-07-17T13:16:52;29.08;;;17.58;;
8279;SDS011;8335;42.646;23.380;2022-07-17T13:19:19;78.10;;;38.38;;
8279;SDS011;8335;42.646;23.380;2022-07-17T13:21:47;36.20;;;22.55;;
8279;SDS011;8335;42.646;23.380;2022-07-17T13:24:13;66.72;;;31.65;;
8279;SDS011;8335;42.646;23.380;2022-07-17T13:26:40;14.05;;;7.90;;
8279;SDS011;8335;42.646;23.380;2022-07-17T13:29:08;10.02;;;6.25;;
8279;SDS011;8335;42.646;23.380;2022-07-17T13:31:35;37.03;;;16.52;;
8279;SDS011;8335;42.646;23.380;2022-07-17T13:34:02;207.32;;;86.50;;
8279;SDS011;8335;42.646;23.380;2022-07-17T13:36:28;24.50;;;14.27;;
8279;SDS011;8335;42.646;23.380;2022-07-17T13:38:55;8.65;;;6.35;;
8279;SDS011;8335;42.646;23.380;2022-07-17T13:41:22;20.45;;;13.23;;
8279;SDS011;8335;42.646;23.380;2022-07-17T13:43:48;5.43;;;4.10;;
8279;SDS011;8335;42.646;23.380;2022-07-17T13:46:17;4.43;;;3.20;;
8279;SDS011;8335;42.646;23.380;2022-07-17T13:48:43;5.30;;;2.85;;
8279;SDS011;8335;42.646;23.380;2022-07-17T13:51:12;4.75;;;3.00;;
8279;SDS011;8335;42.646;23.380;2022-07-17T13:53:39;5.00;;;2.88;;
8279;SDS011;8335;42.646;23.380;2022-07-17T13:56:07;3.45;;;2.83;;
8279;SDS011;8335;42.646;23.380;2022-07-17T13:58:34;6.63;;;3.10;;
8279;SDS011;8335;42.646;23.380;2022-07-17T14:01:00;4.57;;;3.10;;
8279;SDS011;8335;42.646;23.380;2022-07-17T14:03:29;6.40;;;3.45;;
8279;SDS011;8335;42.646;23.380;2022-07-17T14:05:56;4.45;;;2.78;;
8279;SDS011;8335;42.646;23.380;2022-07-17T14:08:23;4.30;;;3.40;;
8279;SDS011;8335;42.646;23.380;2022-07-17T14:10:49;4.50;;;3.05;;
8279;SDS011;8335;42.646;23.380;2022-07-17T14:13:16;3.92;;;2.88;;
8279;SDS011;8335;42.646;23.380;2022-07-17T14:15:43;2.97;;;2.50;;
8279;SDS011;8335;42.646;23.380;2022-07-17T14:18:10;4.72;;;2.90;;
8279;SDS011;8335;42.646;23.380;2022-07-17T14:20:38;7.93;;;3.92;;
8279;SDS011;8335;42.646;23.380;2022-07-17T14:23:05;4.65;;;3.55;;
8279;SDS011;8335;42.646;23.380;2022-07-17T14:25:31;3.10;;;2.80;;
8279;SDS011;8335;42.646;23.380;2022-07-17T14:27:58;4.32;;;2.50;;
8279;SDS011;8335;42.646;23.380;2022-07-17T14:30:25;3.25;;;2.95;;
8279;SDS011;8335;42.646;23.380;2022-07-17T14:32:52;5.50;;;3.25;;
8279;SDS011;8335;42.646;23.380;2022-07-17T14:35:19;5.80;;;3.22;;
8279;SDS011;8335;42.646;23.380;2022-07-17T14:37:48;4.70;;;3.00;;
8279;SDS011;8335;42.646;23.380;2022-07-17T14:40:15;4.93;;;2.60;;
8279;SDS011;8335;42.646;23.380;2022-07-17T14:42:42;3.50;;;2.88;;
8279;SDS011;8335;42.646;23.380;2022-07-17T14:45:09;3.35;;;3.05;;
8279;SDS011;8335;42.646;23.380;2022-07-17T14:47:37;4.43;;;3.40;;
8279;SDS011;8335;42.646;23.380;2022-07-17T14:50:06;16.00;;;8.43;;
8279;SDS011;8335;42.646;23.380;2022-07-17T14:52:34;251.52;;;106.68;;
8279;SDS011;8335;42.646;23.380;2022-07-17T14:55:02;335.17;;;159.38;;
8279;SDS011;8335;42.646;23.380;2022-07-17T14:57:29;298.88;;;129.68;;
8279;SDS011;8335;42.646;23.380;2022-07-17T14:59:56;18.73;;;10.40;;